Time;durP1;ratioP1;P1;durP2;ratioP2;P2;SDS_P1;SDS_P2;PMS_P1;PMS_P2;Temp;Humidity;BMP_temperature;BMP_pressure;BME280_temperature;BME280_humidity;BME280_pressure;Samples;Min_cycle;Max_cycle;Signal;HPM_P1;HPM_P2
2023/09/11 05:48:16;;;;;;;13.90;12.60;;;;;;;;;;6337308;22;19921;-89
2023/09/11 05:50:41;;;;;;;14.88;13.48;;;;;;;;;;6313822;22;20086;-89
2023/09/11 05:53:07;;;;;;;13.50;12.20;;;;;;;;;;6313950;22;20090;-89
2023/09/11 05:55:35;;;;;;;14.07;12.57;;;;;;;;;;6341259;22;20007;-89
2023/09/11 05:58:01;;;;;;;14.45;13.05;;;;;;;;;;6340872;22;20002;-91
2023/09/11 06:00:26;;;;;;;14.45;12.95;;;;;;;;;;6313831;22;20003;-89
2023/09/11 06:02:52;;;;;;;15.18;13.57;;;;;;;;;;6288020;22;20341;-90
2023/09/11 06:05:18;;;;;;;15.75;13.48;;;;;;;;;;6313274;22;20026;-91
2023/09/11 06:07:44;;;;;;;14.45;12.43;;;;;;;;;;6340410;22;20003;-83
2023/09/11 06:10:11;;;;;;;14.48;12.98;;;;;;;;;;6340663;22;20060;-89
2023/09/11 06:12:36;;;;;;;13.57;12.32;;;;;;;;;;6313462;22;20085;-92
2023/09/11 06:15:04;;;;;;;13.63;12.32;;;;;;;;;;6313254;22;20413;-88
2023/09/11 06:17:29;;;;;;;14.60;12.50;;;;;;;;;;6313762;22;20007;-92
2023/09/11 06:19:55;;;;;;;13.88;12.35;;;;;;;;;;6313810;22;19994;-92
2023/09/11 06:22:21;;;;;;;13.38;12.07;;;;;;;;;;6312645;22;20002;-90
2023/09/11 06:24:46;;;;;;;14.27;12.13;;;;;;;;;;6340814;22;20077;-90
2023/09/11 06:27:13;;;;;;;16.67;11.82;;;;;;;;;;6340370;22;20421;-90
2023/09/11 06:29:39;;;;;;;14.05;12.68;;;;;;;;;;6312888;22;20003;-90
2023/09/11 06:32:05;;;;;;;13.75;12.35;;;;;;;;;;6340545;22;19995;-90
2023/09/11 06:34:31;;;;;;;13.43;12.23;;;;;;;;;;6314032;22;20006;-92
2023/09/11 06:36:58;;;;;;;14.48;12.98;;;;;;;;;;6341647;22;20078;-94
2023/09/11 06:39:24;;;;;;;17.60;13.10;;;;;;;;;;6315148;22;20093;-92
2023/09/11 06:41:50;;;;;;;13.93;12.48;;;;;;;;;;6315027;22;20009;-87
2023/09/11 06:44:15;;;;;;;14.73;12.55;;;;;;;;;;6315499;22;20488;-96
2023/09/11 06:46:41;;;;;;;15.50;12.60;;;;;;;;;;6341714;22;20397;-94
2023/09/11 06:49:07;;;;;;;13.63;11.63;;;;;;;;;;6313655;22;20452;-96
2023/09/11 06:51:33;;;;;;;13.90;12.07;;;;;;;;;;6341784;22;20003;-96
2023/09/11 06:53:59;;;;;;;16.10;11.32;;;;;;;;;;6313584;22;20356;-87
2023/09/11 06:56:24;;;;;;;13.57;12.13;;;;;;;;;;6341623;22;20002;-92
2023/09/11 06:58:50;;;;;;;13.02;10.88;;;;;;;;;;6341735;22;19999;-96
2023/09/11 07:01:15;;;;;;;13.65;12.25;;;;;;;;;;6314819;22;20072;-95
2023/09/11 07:03:41;;;;;;;13.00;11.68;;;;;;;;;;6316768;22;20006;-95
2023/09/11 07:06:07;;;;;;;12.73;11.52;;;;;;;;;;6342793;22;20033;-93
2023/09/11 07:08:33;;;;;;;14.23;11.35;;;;;;;;;;6314348;22;20089;-95
2023/09/11 07:11:03;;;;;;;14.32;11.25;;;;;;;;;;6317518;22;20020;-88
2023/09/11 07:13:29;;;;;;;14.45;12.13;;;;;;;;;;6316583;22;20013;-94
2023/09/11 07:15:59;;;;;;;12.75;11.45;;;;;;;;;;6314373;22;20035;-93
2023/09/11 07:18:25;;;;;;;13.20;11.88;;;;;;;;;;6314570;22;20026;-92
2023/09/11 07:20:51;;;;;;;15.95;12.00;;;;;;;;;;6314665;22;20010;-94
2023/09/11 07:23:23;;;;;;;14.10;12.70;;;;;;;;;;6315099;22;19999;-94
2023/09/11 07:25:51;;;;;;;13.60;12.20;;;;;;;;;;6341591;22;20078;-89
2023/09/11 07:28:16;;;;;;;13.32;11.93;;;;;;;;;;6340556;22;19999;-92
2023/09/11 07:30:43;;;;;;;13.18;11.77;;;;;;;;;;6312526;22;20034;-86
2023/09/11 07:33:09;;;;;;;13.68;12.13;;;;;;;;;;6339728;22;19995;-86
2023/09/11 07:35:34;;;;;;;14.52;12.00;;;;;;;;;;6312037;22;20436;-87
2023/09/11 07:38:00;;;;;;;13.30;11.90;;;;;;;;;;6339650;22;20310;-88
2023/09/11 07:40:25;;;;;;;14.70;11.93;;;;;;;;;;6312243;22;20429;-86
2023/09/11 07:42:52;;;;;;;13.15;11.57;;;;;;;;;;6339764;22;20003;-85
2023/09/11 07:45:18;;;;;;;15.65;12.13;;;;;;;;;;6339053;22;20321;-88
2023/09/11 07:47:44;;;;;;;13.05;11.75;;;;;;;;;;6316118;22;20017;-87
2023/09/11 07:50:09;;;;;;;13.93;11.30;;;;;;;;;;6342494;22;20463;-87
2023/09/11 07:52:35;;;;;;;14.48;11.02;;;;;;;;;;6370527;22;20372;-87
2023/09/11 07:55:02;;;;;;;13.77;11.27;;;;;;;;;;6343117;22;20067;-88
2023/09/11 07:57:30;;;;;;;12.40;11.15;;;;;;;;;;6334417;22;20007;-87
2023/09/11 07:59:56;;;;;;;13.18;11.73;;;;;;;;;;6312134;22;20442;-87
2023/09/11 08:02:22;;;;;;;12.50;11.23;;;;;;;;;;6311894;22;20029;-88
2023/09/11 08:04:47;;;;;;;12.40;11.20;;;;;;;;;;6339433;22;20433;-86
2023/09/11 08:07:12;;;;;;;12.27;10.68;;;;;;;;;;6339066;22;19999;-86
2023/09/11 08:09:38;;;;;;;13.77;10.95;;;;;;;;;;6339319;22;20483;-87
2023/09/11 08:12:03;;;;;;;11.82;10.73;;;;;;;;;;6339230;22;20458;-86
2023/09/11 08:14:30;;;;;;;14.00;11.15;;;;;;;;;;6311739;22;20006;-89
2023/09/11 08:16:55;;;;;;;12.80;11.00;;;;;;;;;;6340982;22;20425;-88
2023/09/11 08:19:20;;;;;;;11.15;10.07;;;;;;;;;;6340473;22;20014;-87
2023/09/11 08:21:46;;;;;;;13.70;11.23;;;;;;;;;;6340059;22;20010;-86
2023/09/11 08:24:11;;;;;;;12.57;11.20;;;;;;;;;;6340706;22;20003;-87
2023/09/11 08:26:38;;;;;;;12.23;11.05;;;;;;;;;;6313382;22;19998;-87
2023/09/11 08:29:04;;;;;;;13.45;10.88;;;;;;;;;;6340599;22;20478;-87
2023/09/11 08:31:29;;;;;;;11.90;10.77;;;;;;;;;;6313192;22;20026;-88
2023/09/11 08:33:55;;;;;;;12.50;10.82;;;;;;;;;;6313406;22;20002;-87
2023/09/11 08:36:21;;;;;;;12.48;11.25;;;;;;;;;;6313165;22;20056;-87
2023/09/11 08:38:47;;;;;;;12.00;10.90;;;;;;;;;;6313116;22;20330;-87
2023/09/11 08:41:14;;;;;;;11.75;10.65;;;;;;;;;;6340973;22;19999;-88
2023/09/11 08:43:40;;;;;;;12.18;10.98;;;;;;;;;;6340639;22;20006;-86
2023/09/11 08:46:15;;;;;;;12.23;10.93;;;;;;;;;;6313096;22;20326;-87
2023/09/11 08:48:43;;;;;;;11.15;10.18;;;;;;;;;;6340301;22;20015;-86
2023/09/11 08:51:12;;;;;;;12.35;10.80;;;;;;;;;;6340809;22;20007;-86
2023/09/11 08:53:41;;;;;;;12.00;10.85;;;;;;;;;;6340686;22;20430;-87
2023/09/11 08:56:07;;;;;;;14.07;10.10;;;;;;;;;;6340649;22;20052;-86
2023/09/11 08:58:34;;;;;;;11.88;9.80;;;;;;;;;;6312760;22;20006;-86
2023/09/11 09:01:01;;;;;;;14.48;11.48;;;;;;;;;;6312916;22;20017;-87
2023/09/11 09:03:29;;;;;;;10.88;9.88;;;;;;;;;;6312888;22;19999;-87
2023/09/11 09:05:56;;;;;;;11.25;10.15;;;;;;;;;;6340457;22;20044;-86
2023/09/11 09:08:23;;;;;;;12.75;11.15;;;;;;;;;;6312370;22;20319;-87
2023/09/11 09:10:50;;;;;;;12.30;11.10;;;;;;;;;;6340484;22;19999;-87
2023/09/11 09:13:16;;;;;;;12.40;11.18;;;;;;;;;;6340660;22;20047;-86
2023/09/11 09:15:44;;;;;;;12.00;10.82;;;;;;;;;;6340659;22;20038;-87
2023/09/11 09:18:10;;;;;;;11.45;10.35;;;;;;;;;;6312701;22;20085;-86
2023/09/11 09:20:37;;;;;;;10.95;9.68;;;;;;;;;;6340590;22;20026;-87
2023/09/11 09:23:02;;;;;;;12.65;11.15;;;;;;;;;;6340277;22;19995;-86
2023/09/11 09:25:29;;;;;;;12.57;10.60;;;;;;;;;;6340014;22;20035;-89
2023/09/11 09:27:56;;;;;;;11.73;10.52;;;;;;;;;;6340031;22;20003;-86
2023/09/11 09:30:26;;;;;;;11.80;10.70;;;;;;;;;;6312781;22;20002;-86
2023/09/11 09:32:52;;;;;;;12.13;9.77;;;;;;;;;;6340605;22;19999;-87
2023/09/11 09:35:33;;;;;;;12.13;10.93;;;;;;;;;;6339901;22;20048;-86
2023/09/11 09:38:00;;;;;;;14.63;10.63;;;;;;;;;;6312681;22;20056;-88
2023/09/11 09:40:28;;;;;;;11.15;10.20;;;;;;;;;;6312552;22;20089;-87
2023/09/11 09:42:54;;;;;;;13.02;10.52;;;;;;;;;;6313407;22;20090;-86
2023/09/11 09:45:39;;;;;;;12.43;11.20;;;;;;;;;;6317331;22;20018;-91
2023/09/11 09:48:14;;;;;;;11.73;10.63;;;;;;;;;;6342697;22;20042;-90
2023/09/11 09:50:47;;;;;;;12.60;10.02;;;;;;;;;;6340765;22;20010;-86
2023/09/11 09:53:29;;;;;;;11.38;10.35;;;;;;;;;;6339857;22;20010;-80
2023/09/11 09:55:57;;;;;;;11.50;10.40;;;;;;;;;;6339791;22;20003;-78
2023/09/11 09:58:30;;;;;;;14.35;10.68;;;;;;;;;;6339681;22;20417;-80
2023/09/11 10:01:08;;;;;;;12.30;11.10;;;;;;;;;;6339917;22;19999;-78
2023/09/11 10:03:45;;;;;;;11.80;10.65;;;;;;;;;;6339767;22;19999;-78
2023/09/11 10:06:32;;;;;;;11.98;10.80;;;;;;;;;;6339598;22;20087;-78
2023/09/11 10:09:12;;;;;;;12.15;10.90;;;;;;;;;;6311768;22;20403;-79
2023/09/11 10:11:39;;;;;;;12.05;10.80;;;;;;;;;;6339583;22;20108;-78
2023/09/11 10:14:08;;;;;;;12.00;10.77;;;;;;;;;;6339512;22;20002;-81
2023/09/11 10:16:36;;;;;;;12.55;11.32;;;;;;;;;;6339781;22;20021;-80
2023/09/11 10:19:03;;;;;;;12.30;11.20;;;;;;;;;;6311812;22;20033;-80
2023/09/11 10:21:29;;;;;;;11.90;10.68;;;;;;;;;;6339682;22;20029;-79
2023/09/11 10:23:55;;;;;;;13.10;11.73;;;;;;;;;;6339916;22;20354;-79
2023/09/11 10:26:25;;;;;;;12.07;10.80;;;;;;;;;;6311931;22;20083;-79
2023/09/11 10:28:58;;;;;;;13.70;11.18;;;;;;;;;;6339648;22;20329;-79
2023/09/11 10:31:28;;;;;;;11.85;10.75;;;;;;;;;;6339444;22;19999;-78
2023/09/11 10:34:00;;;;;;;12.50;11.40;;;;;;;;;;6312566;22;20006;-78
2023/09/11 10:36:55;;;;;;;13.27;11.20;;;;;;;;;;6339624;22;19999;-78
2023/09/11 10:39:21;;;;;;;12.25;11.07;;;;;;;;;;6335655;22;20006;-77
2023/09/11 10:41:47;;;;;;;12.13;10.95;;;;;;;;;;6340060;22;20467;-77
2023/09/11 10:44:15;;;;;;;11.38;10.40;;;;;;;;;;6339659;22;20022;-77
2023/09/11 10:46:48;;;;;;;13.05;10.20;;;;;;;;;;6339521;22;20374;-77
2023/09/11 10:49:16;;;;;;;11.52;10.52;;;;;;;;;;6338981;22;20015;-77
2023/09/11 10:51:42;;;;;;;12.05;10.85;;;;;;;;;;6339506;22;20010;-76
2023/09/11 10:54:10;;;;;;;12.88;10.45;;;;;;;;;;6339319;22;20003;-77
2023/09/11 10:56:36;;;;;;;11.73;10.73;;;;;;;;;;6339616;22;19998;-77
2023/09/11 10:59:02;;;;;;;11.63;10.50;;;;;;;;;;6339229;22;20038;-76
2023/09/11 11:01:27;;;;;;;11.85;10.73;;;;;;;;;;6311946;22;20027;-76
2023/09/11 11:03:53;;;;;;;11.63;10.52;;;;;;;;;;6339383;22;20003;-77
2023/09/11 11:06:23;;;;;;;12.20;10.68;;;;;;;;;;6339095;22;20326;-77
2023/09/11 11:08:49;;;;;;;11.45;10.40;;;;;;;;;;6339023;22;20006;-76
2023/09/11 11:11:29;;;;;;;13.38;10.60;;;;;;;;;;6339387;22;20003;-76
2023/09/11 11:14:14;;;;;;;12.50;11.20;;;;;;;;;;6339235;22;19998;-77
2023/09/11 11:17:08;;;;;;;10.48;9.57;;;;;;;;;;6339226;22;20009;-75
2023/09/11 11:19:35;;;;;;;10.50;9.50;;;;;;;;;;6339512;22;20013;-75
2023/09/11 11:22:03;;;;;;;10.40;9.43;;;;;;;;;;6339029;22;20033;-75
2023/09/11 11:24:50;;;;;;;10.87;9.77;;;;;;;;;;6339194;22;20085;-76
2023/09/11 11:27:15;;;;;;;11.07;9.98;;;;;;;;;;6339415;22;20003;-75
2023/09/11 11:29:41;;;;;;;11.75;10.35;;;;;;;;;;6339128;22;20419;-74
2023/09/11 11:32:10;;;;;;;10.60;9.63;;;;;;;;;;6339304;22;20056;-76
2023/09/11 11:34:37;;;;;;;11.35;10.20;;;;;;;;;;6339298;22;20003;-76
2023/09/11 11:37:05;;;;;;;11.68;10.38;;;;;;;;;;6311545;22;20013;-74
2023/09/11 11:39:36;;;;;;;12.63;11.48;;;;;;;;;;6339297;22;20009;-76
2023/09/11 11:42:02;;;;;;;12.30;10.52;;;;;;;;;;6339103;22;20007;-76
2023/09/11 11:44:33;;;;;;;12.05;10.75;;;;;;;;;;6311911;22;20087;-78
2023/09/11 11:46:59;;;;;;;11.10;10.05;;;;;;;;;;6339329;22;20506;-78
2023/09/11 11:49:25;;;;;;;11.88;10.45;;;;;;;;;;6339610;22;20334;-78
2023/09/11 11:51:50;;;;;;;10.95;9.85;;;;;;;;;;6341235;22;20007;-78
2023/09/11 11:54:26;;;;;;;10.30;9.15;;;;;;;;;;6341082;22;20410;-78
2023/09/11 11:56:59;;;;;;;10.23;9.27;;;;;;;;;;6341203;22;19999;-78
2023/09/11 11:59:41;;;;;;;9.95;9.00;;;;;;;;;;6313341;22;20086;-78
2023/09/11 12:02:23;;;;;;;9.23;8.43;;;;;;;;;;6341093;22;20078;-78
2023/09/11 12:04:53;;;;;;;9.65;8.75;;;;;;;;;;6340709;22;20021;-78
2023/09/11 12:07:21;;;;;;;10.32;9.00;;;;;;;;;;6341321;22;20077;-77
2023/09/11 12:09:47;;;;;;;10.40;9.40;;;;;;;;;;6341121;22;20330;-77
2023/09/11 12:12:13;;;;;;;10.20;9.13;;;;;;;;;;6340754;22;19999;-77
2023/09/11 12:14:39;;;;;;;12.10;9.07;;;;;;;;;;6313227;22;20010;-78
2023/09/11 12:17:11;;;;;;;10.60;9.40;;;;;;;;;;6340392;22;20003;-77
2023/09/11 12:19:36;;;;;;;9.32;8.43;;;;;;;;;;6340766;22;20061;-77
2023/09/11 12:22:04;;;;;;;10.15;9.10;;;;;;;;;;6340623;22;20003;-78
2023/09/11 12:24:30;;;;;;;9.00;8.30;;;;;;;;;;6340581;22;19999;-80
2023/09/11 12:26:56;;;;;;;9.55;8.50;;;;;;;;;;6340483;22;20003;-77
2023/09/11 12:29:21;;;;;;;9.80;8.80;;;;;;;;;;6340641;22;20003;-77
2023/09/11 12:31:47;;;;;;;9.02;8.23;;;;;;;;;;6340686;22;20114;-78
2023/09/11 12:34:13;;;;;;;8.95;8.15;;;;;;;;;;6340609;22;20002;-77
2023/09/11 12:36:41;;;;;;;9.45;8.50;;;;;;;;;;6340479;22;20030;-83
2023/09/11 12:39:07;;;;;;;9.00;8.20;;;;;;;;;;6340435;22;20070;-77
2023/09/11 12:41:32;;;;;;;9.57;8.68;;;;;;;;;;6340670;22;20030;-77
2023/09/11 12:43:59;;;;;;;9.32;8.43;;;;;;;;;;6340174;22;19999;-77
2023/09/11 12:46:25;;;;;;;9.13;8.23;;;;;;;;;;6340304;22;20003;-77
2023/09/11 12:48:51;;;;;;;9.20;8.32;;;;;;;;;;6339941;22;20038;-77
2023/09/11 12:51:17;;;;;;;9.13;8.23;;;;;;;;;;6340509;22;20011;-77
2023/09/11 12:53:45;;;;;;;8.63;7.78;;;;;;;;;;6340200;22;20010;-77
2023/09/11 12:56:13;;;;;;;9.68;8.68;;;;;;;;;;6340331;22;20009;-78
2023/09/11 12:58:38;;;;;;;10.05;8.13;;;;;;;;;;6340326;22;20006;-78
2023/09/11 13:01:11;;;;;;;9.07;8.27;;;;;;;;;;6339805;22;20006;-77
2023/09/11 13:03:36;;;;;;;8.98;8.07;;;;;;;;;;6340568;22;20322;-78
2023/09/11 13:06:02;;;;;;;8.40;7.70;;;;;;;;;;6340535;22;20006;-77
2023/09/11 13:08:29;;;;;;;9.50;8.70;;;;;;;;;;6340231;22;20010;-77
2023/09/11 13:10:55;;;;;;;9.63;8.73;;;;;;;;;;6339996;22;20074;-78
2023/09/11 13:13:21;;;;;;;9.00;7.53;;;;;;;;;;6340282;22;20029;-77
2023/09/11 13:15:46;;;;;;;11.55;8.60;;;;;;;;;;6340240;22;20006;-78
2023/09/11 13:18:12;;;;;;;9.10;8.20;;;;;;;;;;6340173;22;20044;-78
2023/09/11 13:20:37;;;;;;;9.93;8.95;;;;;;;;;;6340002;22;20006;-77
2023/09/11 13:23:03;;;;;;;9.35;8.45;;;;;;;;;;6340442;22;20006;-77
2023/09/11 13:25:29;;;;;;;11.07;8.23;;;;;;;;;;6340295;22;20006;-79
2023/09/11 13:27:54;;;;;;;10.93;8.45;;;;;;;;;;6340031;22;20010;-78
2023/09/11 13:30:21;;;;;;;9.30;8.43;;;;;;;;;;6340245;22;20003;-81
2023/09/11 13:32:46;;;;;;;10.15;9.15;;;;;;;;;;6340408;22;19999;-77
2023/09/11 13:35:11;;;;;;;9.32;8.35;;;;;;;;;;6340211;22;20334;-77
2023/09/11 13:37:37;;;;;;;10.02;9.07;;;;;;;;;;6312324;22;19998;-78
2023/09/11 13:40:03;;;;;;;10.70;9.48;;;;;;;;;;6312310;22;20444;-77
2023/09/11 13:42:28;;;;;;;9.63;8.63;;;;;;;;;;6339940;22;20067;-77
2023/09/11 13:44:55;;;;;;;10.55;9.50;;;;;;;;;;6312303;22;20031;-77
2023/09/11 13:47:21;;;;;;;11.73;9.10;;;;;;;;;;6339951;22;20010;-77
2023/09/11 13:49:47;;;;;;;10.93;9.85;;;;;;;;;;6339720;22;20014;-77
2023/09/11 13:52:14;;;;;;;11.15;10.10;;;;;;;;;;6340132;22;20011;-77
2023/09/11 13:54:40;;;;;;;16.20;14.75;;;;;;;;;;6339943;22;20322;-77
2023/09/11 13:57:05;;;;;;;11.02;9.90;;;;;;;;;;6339814;22;19999;-84
2023/09/11 14:32:57;;;;;;;14.10;12.68;;;;;;;;;;6341206;22;20013;-82
2023/09/11 14:35:24;;;;;;;16.55;15.07;;;;;;;;;;6343176;22;20003;-84
2023/09/11 14:37:49;;;;;;;15.05;13.73;;;;;;;;;;6371096;22;20006;-84
2023/09/11 14:40:15;;;;;;;27.40;25.17;;;;;;;;;;6339425;22;20056;-83
2023/09/11 14:42:40;;;;;;;23.30;21.20;;;;;;;;;;6339490;22;20009;-84
2023/09/11 14:45:06;;;;;;;18.48;15.65;;;;;;;;;;6339610;22;19999;-84
2023/09/11 14:47:32;;;;;;;18.40;16.60;;;;;;;;;;6339427;22;20002;-80
2023/09/11 14:49:57;;;;;;;15.30;12.07;;;;;;;;;;6339519;22;20003;-84
2023/09/11 14:52:23;;;;;;;14.65;13.07;;;;;;;;;;6339532;22;20059;-84
2023/09/11 14:54:49;;;;;;;15.88;14.48;;;;;;;;;;6339498;22;20318;-84
2023/09/11 14:57:14;;;;;;;20.17;18.50;;;;;;;;;;6339764;22;20003;-84
2023/09/11 14:59:40;;;;;;;19.10;17.05;;;;;;;;;;6339735;22;20006;-86
2023/09/11 15:02:07;;;;;;;20.98;19.02;;;;;;;;;;6339818;22;20009;-88
2023/09/11 15:04:32;;;;;;;14.45;13.15;;;;;;;;;;6339802;22;20075;-90
2023/09/11 15:06:58;;;;;;;14.60;13.13;;;;;;;;;;6312260;22;19999;-87
2023/09/11 15:09:23;;;;;;;14.15;12.75;;;;;;;;;;6339172;22;20010;-88
2023/09/11 15:11:49;;;;;;;18.83;15.75;;;;;;;;;;6340009;22;20072;-87
2023/09/11 15:14:14;;;;;;;14.85;13.43;;;;;;;;;;6339730;22;20471;-84
2023/09/11 15:16:40;;;;;;;18.80;17.00;;;;;;;;;;6339242;22;20006;-81
2023/09/11 15:19:06;;;;;;;17.80;15.88;;;;;;;;;;6339109;22;20002;-82
2023/09/11 15:21:32;;;;;;;17.48;15.68;;;;;;;;;;6339307;22;20028;-81
2023/09/11 15:24:02;;;;;;;14.43;12.98;;;;;;;;;;6339932;22;20066;-81
2023/09/11 15:26:28;;;;;;;19.13;16.90;;;;;;;;;;6313546;22;20010;-81
2023/09/11 15:28:53;;;;;;;17.65;13.70;;;;;;;;;;6341381;22;20006;-84
2023/09/11 15:31:18;;;;;;;18.98;17.15;;;;;;;;;;6341748;22;19999;-81
2023/09/11 15:33:44;;;;;;;20.25;18.35;;;;;;;;;;6339442;22;20017;-82
2023/09/11 15:36:09;;;;;;;16.38;14.77;;;;;;;;;;6339364;22;20003;-79
2023/09/11 15:38:39;;;;;;;14.73;13.38;;;;;;;;;;6311759;22;20028;-80
2023/09/11 15:41:04;;;;;;;17.63;15.80;;;;;;;;;;6339398;22;20471;-81
2023/09/11 15:43:32;;;;;;;15.75;14.20;;;;;;;;;;6339244;22;20006;-80
2023/09/11 15:45:59;;;;;;;23.05;20.75;;;;;;;;;;6339256;22;20010;-80
2023/09/11 15:48:26;;;;;;;16.42;14.80;;;;;;;;;;6339162;22;20010;-79
2023/09/11 15:50:51;;;;;;;16.00;14.13;;;;;;;;;;6339194;22;20006;-81
2023/09/11 15:53:19;;;;;;;17.98;16.30;;;;;;;;;;6339011;22;19999;-81
2023/09/11 15:55:47;;;;;;;16.70;15.10;;;;;;;;;;6339372;22;19998;-81
2023/09/11 15:58:13;;;;;;;16.27;14.70;;;;;;;;;;6312334;22;20013;-82
2023/09/11 16:00:38;;;;;;;19.67;17.85;;;;;;;;;;6339377;22;20056;-82
2023/09/11 16:03:04;;;;;;;14.75;13.45;;;;;;;;;;6338937;22;20010;-83
2023/09/11 16:05:30;;;;;;;28.35;26.13;;;;;;;;;;6339535;22;20003;-82
2023/09/11 16:07:55;;;;;;;16.15;14.65;;;;;;;;;;6338864;22;20074;-80
2023/09/11 16:10:21;;;;;;;17.77;15.07;;;;;;;;;;6339107;22;19999;-80
2023/09/11 16:12:46;;;;;;;17.85;16.00;;;;;;;;;;6338925;22;20009;-80
2023/09/11 16:15:11;;;;;;;18.90;17.40;;;;;;;;;;6338913;22;20037;-80
2023/09/11 16:17:37;;;;;;;18.27;16.58;;;;;;;;;;6338878;22;20030;-80
2023/09/11 16:20:03;;;;;;;18.77;17.05;;;;;;;;;;6338681;22;19999;-81
2023/09/11 16:22:28;;;;;;;15.65;14.15;;;;;;;;;;6339364;22;20003;-81
2023/09/11 16:24:53;;;;;;;18.15;16.65;;;;;;;;;;6339051;22;20003;-81
2023/09/11 16:27:19;;;;;;;18.92;16.98;;;;;;;;;;6339080;22;20449;-81
2023/09/11 16:29:44;;;;;;;18.55;16.95;;;;;;;;;;6338562;22;20009;-82
2023/09/11 16:32:10;;;;;;;17.13;15.35;;;;;;;;;;6288505;22;1155186;-82
2023/09/11 16:34:35;;;;;;;19.00;17.15;;;;;;;;;;6340487;22;20044;-81
2023/09/11 16:37:02;;;;;;;19.38;14.43;;;;;;;;;;6340172;22;20064;-81
2023/09/11 16:39:28;;;;;;;18.27;15.07;;;;;;;;;;6340335;22;20003;-80
2023/09/11 16:41:53;;;;;;;19.10;17.33;;;;;;;;;;6340532;22;20009;-82
2023/09/11 16:44:19;;;;;;;16.20;14.60;;;;;;;;;;6340475;22;20007;-83
2023/09/11 16:46:44;;;;;;;20.08;18.17;;;;;;;;;;6340358;22;20051;-82
2023/09/11 16:49:09;;;;;;;19.00;17.23;;;;;;;;;;6340769;22;20011;-83
2023/09/11 16:51:35;;;;;;;16.77;15.18;;;;;;;;;;6340840;22;19999;-83
2023/09/11 16:54:00;;;;;;;15.35;13.80;;;;;;;;;;6340864;22;20078;-82
2023/09/11 16:56:26;;;;;;;17.83;16.20;;;;;;;;;;6340323;22;20073;-83
2023/09/11 16:58:51;;;;;;;16.20;14.60;;;;;;;;;;6340459;22;20009;-84
2023/09/11 17:01:17;;;;;;;13.77;12.40;;;;;;;;;;6340397;22;20022;-83
2023/09/11 17:03:42;;;;;;;18.35;16.70;;;;;;;;;;6340881;22;20002;-86
2023/09/11 17:06:08;;;;;;;16.75;14.15;;;;;;;;;;6340223;22;20350;-84
2023/09/11 17:08:33;;;;;;;17.17;15.48;;;;;;;;;;6340231;22;20075;-82
2023/09/11 17:10:59;;;;;;;19.52;17.70;;;;;;;;;;6341664;22;20027;-82
2023/09/11 17:13:24;;;;;;;16.63;15.05;;;;;;;;;;6340882;22;19995;-82
2023/09/11 17:15:50;;;;;;;17.38;14.32;;;;;;;;;;6340129;22;20027;-82
2023/09/11 17:18:15;;;;;;;17.38;15.68;;;;;;;;;;6312535;22;20454;-83
2023/09/11 17:20:43;;;;;;;19.27;17.38;;;;;;;;;;6340611;22;20440;-82
2023/09/11 17:23:10;;;;;;;16.23;14.57;;;;;;;;;;6340210;22;20006;-82
2023/09/11 17:25:36;;;;;;;16.73;14.60;;;;;;;;;;6340255;22;20023;-82
2023/09/11 17:28:01;;;;;;;15.10;13.52;;;;;;;;;;6339836;22;20026;-82
2023/09/11 17:30:27;;;;;;;14.48;13.07;;;;;;;;;;6340493;22;20007;-81
2023/09/11 17:32:52;;;;;;;16.58;14.98;;;;;;;;;;6339852;22;20007;-82
2023/09/11 17:35:18;;;;;;;16.55;14.90;;;;;;;;;;6340421;22;20429;-80
2023/09/11 17:37:44;;;;;;;16.63;15.13;;;;;;;;;;6340291;22;19998;-80
2023/09/11 17:40:10;;;;;;;19.42;13.68;;;;;;;;;;6340245;22;20334;-89
2023/09/11 17:42:37;;;;;;;15.95;14.35;;;;;;;;;;6312550;22;20010;-86
2023/09/11 17:45:04;;;;;;;16.02;14.35;;;;;;;;;;6340349;22;19999;-87
2023/09/11 17:47:30;;;;;;;15.80;13.70;;;;;;;;;;6312472;22;20006;-87
2023/09/11 17:49:56;;;;;;;16.58;15.05;;;;;;;;;;6340005;22;20010;-85
2023/09/11 17:52:21;;;;;;;15.77;14.15;;;;;;;;;;6340975;22;19998;-88
2023/09/11 17:54:47;;;;;;;15.60;14.00;;;;;;;;;;6312875;22;20067;-86
2023/09/11 17:57:12;;;;;;;15.80;13.85;;;;;;;;;;6341193;22;20023;-85
2023/09/11 17:59:38;;;;;;;14.57;13.23;;;;;;;;;;6341233;22;20009;-85
2023/09/11 18:02:03;;;;;;;15.50;14.00;;;;;;;;;;6342769;22;20006;-85
2023/09/11 18:04:32;;;;;;;16.40;14.73;;;;;;;;;;6341087;22;20009;-85
2023/09/11 18:06:57;;;;;;;16.50;14.57;;;;;;;;;;6340655;22;19998;-87
2023/09/11 18:09:23;;;;;;;15.73;14.18;;;;;;;;;;6339954;22;20002;-83
2023/09/11 18:11:48;;;;;;;17.10;15.48;;;;;;;;;;6339988;22;20003;-82
2023/09/11 18:14:14;;;;;;;17.35;15.57;;;;;;;;;;6339740;22;19994;-81
2023/09/11 18:16:39;;;;;;;14.73;13.27;;;;;;;;;;6340014;22;20033;-80
2023/09/11 18:19:05;;;;;;;19.73;17.60;;;;;;;;;;6339712;22;20074;-79
2023/09/11 18:21:31;;;;;;;20.35;18.25;;;;;;;;;;6312082;22;20006;-81
2023/09/11 18:23:56;;;;;;;15.52;14.13;;;;;;;;;;6339955;22;19999;-82
2023/09/11 18:26:22;;;;;;;18.33;14.68;;;;;;;;;;6311986;22;20013;-81
2023/09/11 18:28:48;;;;;;;18.25;16.35;;;;;;;;;;6339470;22;20436;-81
2023/09/11 18:31:13;;;;;;;17.65;15.95;;;;;;;;;;6312046;22;20002;-84
2023/09/11 18:33:39;;;;;;;15.05;13.45;;;;;;;;;;6340299;22;20026;-80
2023/09/11 18:36:04;;;;;;;16.70;15.15;;;;;;;;;;6311843;22;20003;-80
2023/09/11 18:38:33;;;;;;;16.17;14.63;;;;;;;;;;6339651;22;20505;-80
2023/09/11 18:40:58;;;;;;;37.22;22.10;;;;;;;;;;6339609;22;20056;-82
2023/09/11 18:43:24;;;;;;;33.95;18.63;;;;;;;;;;6311854;22;19999;-82
2023/09/11 18:45:49;;;;;;;15.75;14.10;;;;;;;;;;6339868;22;20011;-84
2023/09/11 18:48:15;;;;;;;15.85;14.35;;;;;;;;;;6339379;22;20064;-82
2023/09/11 18:50:40;;;;;;;16.58;14.30;;;;;;;;;;6339932;22;20002;-82
2023/09/11 18:53:06;;;;;;;17.02;15.20;;;;;;;;;;6311839;22;19995;-84
2023/09/11 18:55:31;;;;;;;15.63;13.93;;;;;;;;;;6311776;22;20013;-85
2023/09/11 18:57:57;;;;;;;17.48;14.40;;;;;;;;;;6339619;22;20006;-82
2023/09/11 19:00:22;;;;;;;15.35;13.85;;;;;;;;;;6339295;22;19999;-82
2023/09/11 19:02:48;;;;;;;16.70;15.00;;;;;;;;;;6339849;22;20002;-83
2023/09/11 19:05:14;;;;;;;15.02;13.43;;;;;;;;;;6339546;22;20055;-82
2023/09/11 19:07:39;;;;;;;16.35;14.65;;;;;;;;;;6339546;22;20078;-82
2023/09/11 19:10:07;;;;;;;15.23;13.57;;;;;;;;;;6339514;22;20009;-81
2023/09/11 19:12:33;;;;;;;15.60;13.88;;;;;;;;;;6311544;22;20056;-82
2023/09/11 19:14:59;;;;;;;14.85;13.18;;;;;;;;;;6339409;22;20002;-82
2023/09/11 19:17:24;;;;;;;14.95;13.52;;;;;;;;;;6339370;22;20033;-81
2023/09/11 19:19:49;;;;;;;15.82;13.90;;;;;;;;;;6339185;22;19995;-81
2023/09/11 19:22:15;;;;;;;14.35;12.95;;;;;;;;;;6339147;22;20002;-81
2023/09/11 19:24:41;;;;;;;15.07;13.68;;;;;;;;;;6339411;22;20007;-82
2023/09/11 19:27:08;;;;;;;14.05;12.85;;;;;;;;;;6339537;22;19999;-78
2023/09/11 19:29:33;;;;;;;14.88;13.57;;;;;;;;;;6338941;22;20007;-79
2023/09/11 19:31:59;;;;;;;15.27;13.77;;;;;;;;;;6339080;22;20087;-79
2023/09/11 19:34:24;;;;;;;15.13;13.40;;;;;;;;;;6339440;22;20482;-78
2023/09/11 19:36:50;;;;;;;14.93;13.38;;;;;;;;;;6339409;22;20002;-79
2023/09/11 19:39:15;;;;;;;16.02;14.10;;;;;;;;;;6339173;22;20086;-78
2023/09/11 19:41:42;;;;;;;17.83;15.23;;;;;;;;;;6339241;22;20410;-79
2023/09/11 19:44:08;;;;;;;16.00;14.43;;;;;;;;;;6339182;22;20341;-79
2023/09/11 19:46:33;;;;;;;15.65;14.13;;;;;;;;;;6339460;22;20030;-79
2023/09/11 19:48:58;;;;;;;15.45;14.02;;;;;;;;;;6338987;22;20026;-79
2023/09/11 19:51:24;;;;;;;14.63;13.13;;;;;;;;;;6339229;22;19999;-77
2023/09/11 19:53:50;;;;;;;15.85;14.32;;;;;;;;;;6338166;22;20482;-77
2023/09/11 19:56:15;;;;;;;16.48;14.65;;;;;;;;;;6338744;22;20365;-78
2023/09/11 19:58:41;;;;;;;17.15;14.02;;;;;;;;;;6338570;22;20334;-79
2023/09/11 20:01:06;;;;;;;15.13;13.73;;;;;;;;;;6339128;22;20006;-79
2023/09/11 20:03:33;;;;;;;16.20;14.50;;;;;;;;;;6338869;22;19999;-78
2023/09/11 20:05:59;;;;;;;17.85;15.85;;;;;;;;;;6338961;22;20003;-77
2023/09/11 20:08:24;;;;;;;16.25;14.60;;;;;;;;;;6338790;22;20026;-78
2023/09/11 20:10:50;;;;;;;15.98;14.18;;;;;;;;;;6339860;22;20006;-78
2023/09/11 20:13:15;;;;;;;16.17;14.48;;;;;;;;;;6340704;22;20040;-78
2023/09/11 20:15:41;;;;;;;16.25;14.65;;;;;;;;;;6340654;22;20007;-78
2023/09/11 20:18:06;;;;;;;15.68;14.18;;;;;;;;;;6313302;22;20007;-78
2023/09/11 20:20:32;;;;;;;15.55;13.98;;;;;;;;;;6340628;22;20029;-77
2023/09/11 20:22:57;;;;;;;15.60;14.10;;;;;;;;;;6340845;22;20078;-78
2023/09/11 20:25:23;;;;;;;16.33;14.88;;;;;;;;;;6340523;22;19995;-79
2023/09/11 20:27:48;;;;;;;16.25;14.55;;;;;;;;;;6340354;22;19999;-78
2023/09/11 20:30:16;;;;;;;16.33;14.65;;;;;;;;;;6340523;22;20082;-78
2023/09/11 20:32:41;;;;;;;18.10;14.77;;;;;;;;;;6340449;22;20069;-78
2023/09/11 20:35:07;;;;;;;15.73;14.20;;;;;;;;;;6340532;22;20003;-78
2023/09/11 20:37:33;;;;;;;19.67;14.50;;;;;;;;;;6340636;22;20003;-79
2023/09/11 20:39:59;;;;;;;14.50;13.15;;;;;;;;;;6340614;22;20420;-79